CheckWX is a tool to help pilots better visualize weather data.  It is not intended as a substitute for an official pre-flight weather briefing.

02:11:57 UTC

EBLB METAR
Elsenborn Airport
Bütgenbach, Belgium
Current

17 mins ago

EBLB 180155Z AUTO VRB01KT 9999 NCD 05/M01 Q1020 BLU
Observed
Feb-18 @ 01:55 UTC
Wind
  • Variable at 1 KTS
Visibility
10,000+ meters
Flight Rules
VFR
Cloud Levels
  • Clear skies
Temperature
C / 41°F
Dewpoint
-1°C / 30°F
Humidity
66%
Altimeter
30.12" Hg
Pressure
1019.92 hPa
Previous

47 mins ago

EBLB 180125Z AUTO VRB01KT 9999 NCD 03/M01 Q1020 BLU
Observed
Feb-18 @ 01:25 UTC
Wind
  • Variable at 1 KTS
Visibility
10,000+ meters
Flight Rules
VFR
Cloud Levels
  • Clear skies
Temperature
C / 37°F
Dewpoint
-1°C / 30°F
Humidity
75%
Altimeter
30.12" Hg
Pressure
1019.92 hPa
Previous

1 hour ago

EBLB 180055Z AUTO VRB01KT 9999 NCD 02/M02 Q1020 BLU
Observed
Feb-18 @ 00:55 UTC
Wind
  • Variable at 1 KTS
Visibility
10,000+ meters
Flight Rules
VFR
Cloud Levels
  • Clear skies
Temperature
C / 36°F
Dewpoint
-2°C / 28°F
Humidity
75%
Altimeter
30.12" Hg
Pressure
1019.92 hPa